Have a Safe July 4th! 

Flight Track Log - Related Links

Times and Time Zones

All times are in EDT time to prevent confusion due to time zone crossing. See the FLG4159 flight status page for this flight to view local times or setup timezone preferences in your user account.

Time Position Orientation Groundspeed Altitude Reporting Facility
EDT Latitude Longitude Course Direction KTS MPH feet Rate Location/Type
Mon 10:59:45 PM 44.8833 -93.1500 41° Northeast 181 208 2,600  Level Minneapolis TRACON
Mon 11:01:12 PM 44.9483 -93.0672 42° Northeast 246 283 5,700 2,270 Climbing Minneapolis Center
Mon 11:02:00 PM 45.1800 -93.3013 45° Northeast  Level FlightAware Approximate
Mon 11:02:13 PM 45.0228 -93.0347 17° North 280 322 8,200  Level Minneapolis Center
Mon 11:03:00 PM 45.2427 -93.2128 45° Northeast  Level FlightAware Approximate
Mon 11:03:14 PM 45.1028 -92.9981 18° North 302 348 10,600  Level Minneapolis Center
Mon 11:04:00 PM 45.3051 -93.1238 45° Northeast  Level FlightAware Approximate
Mon 11:04:15 PM 45.1931 -92.9575 18° North 345 397 11,900  Level Minneapolis Center
Mon 11:05:00 PM 45.3645 -93.0444 41° Northeast  Level FlightAware Approximate
Mon 11:05:17 PM 45.2881 -92.9144 18° North 360 414 13,000  Level Minneapolis Center
Mon 11:06:18 PM 45.3936 -92.8658 18° North 397 457 13,000  Level Minneapolis Center
Mon 11:07:19 PM 45.5025 -92.8172 17° North 409 471 13,000  Level Minneapolis Center
Mon 11:08:21 PM 45.6328 -92.7569 18° North 412 474 13,000  Level Minneapolis Center
Mon 11:09:22 PM 45.7411 -92.7086 17° North 409 471 13,000  Level Minneapolis Center
Mon 11:10:35 PM 45.8475 -92.6589 18° North 404 465 13,000  Level Minneapolis Center
Mon 11:11:37 PM 45.9753 -92.6042 17° North 401 461 13,000  Level Minneapolis Center
Mon 11:12:50 PM 46.0808 -92.5533 18° North 399 459 13,000 -44 Level Minneapolis Center
Mon 11:13:52 PM 46.2147 -92.4906 18° North 404 465 12,900 -634 Descending Minneapolis Center
Mon 11:14:53 PM 46.3158 -92.4414 19° North 389 448 11,700 -1,279 Descending Minneapolis Center
Mon 11:15:54 PM 46.4000 -92.4022 18° North 336 387 10,300 -1,279 Descending Minneapolis Center
Mon 11:16:55 PM 46.4764 -92.3656 18° North 302 348 9,100 -1,171 Descending Minneapolis Center
Mon 11:17:57 PM 46.5528 -92.3308 17° North 291 335 7,900 -1,415 Descending Minneapolis Center
Mon 11:18:58 PM 46.6269 -92.2956 18° North 286 329 6,200 -1,918 Descending Minneapolis Center
Mon 11:19:59 PM 46.7167 -92.2878 North 278 320 4,000 -1,574 Descending Minneapolis Center
Mon 11:21:00 PM 46.7883 -92.2900 359° North 270 311 3,000 -634 Descending Minneapolis Center
Mon 11:22:02 PM 46.8358 -92.2956 355° North 219 252 2,700 -683 Descending Minneapolis Center
Mon 11:23:03 PM 46.8425 -92.2367 81° East 176 203 1,600 -1,082 Descending Minneapolis Center

Login

Don't have an account? Register now (free) for customized features, flight alerts, and more!